Time;durP1;ratioP1;P1;durP2;ratioP2;P2;SDS_P1;SDS_P2;PMS_P1;PMS_P2;Temp;Humidity;BMP_temperature;BMP_pressure;BME280_temperature;BME280_humidity;BME280_pressure;Samples;Min_cycle;Max_cycle;Signal;HPM_P1;HPM_P2
2021/04/20 00:00:49;;;;;;;65.97;39.20;;;3.40;99.90;;;;;;5012457;28;20537;-68
2021/04/20 00:03:16;;;;;;;78.10;39.83;;;3.40;99.90;;;;;;5012148;28;20517;-67
2021/04/20 00:05:43;;;;;;;83.03;42.47;;;3.50;99.90;;;;;;5012464;28;20532;-68
2021/04/20 00:08:09;;;;;;;71.07;38.50;;;3.50;99.90;;;;;;5012489;28;20549;-68
2021/04/20 00:10:36;;;;;;;71.33;41.00;;;3.50;99.90;;;;;;5012405;28;20441;-68
2021/04/20 00:13:03;;;;;;;60.37;35.23;;;3.50;99.90;;;;;;5012044;28;20473;-68
2021/04/20 00:15:32;;;;;;;64.33;36.90;;;3.50;99.90;;;;;;5012696;28;20456;-67
2021/04/20 00:18:04;;;;;;;59.30;36.40;;;3.40;99.90;;;;;;5012272;28;20620;-68
2021/04/20 00:20:31;;;;;;;54.93;34.13;;;3.40;99.90;;;;;;5011992;28;20456;-68
2021/04/20 00:22:58;;;;;;;61.63;35.93;;;3.40;99.90;;;;;;5011536;28;21069;-68
2021/04/20 00:25:25;;;;;;;62.40;35.03;;;3.40;99.90;;;;;;5012185;28;21186;-68
2021/04/20 00:27:51;;;;;;;54.97;33.17;;;3.40;99.90;;;;;;5011910;28;20450;-67
2021/04/20 00:30:19;;;;;;;51.10;31.57;;;3.40;99.90;;;;;;5012152;28;20477;-68
2021/04/20 00:32:45;;;;;;;56.30;32.67;;;3.50;99.90;;;;;;5011663;28;20545;-67
2021/04/20 00:35:13;;;;;;;54.40;33.40;;;3.40;99.90;;;;;;5012693;28;20520;-68
2021/04/20 00:37:42;;;;;;;51.27;32.57;;;3.40;99.90;;;;;;5012559;28;20967;-67
2021/04/20 00:40:10;;;;;;;53.90;32.80;;;3.40;99.90;;;;;;5012386;28;20529;-68
2021/04/20 00:42:51;;;;;;;57.77;33.50;;;3.40;99.90;;;;;;5012319;28;20492;-68
2021/04/20 00:45:19;;;;;;;44.23;30.60;;;3.40;99.90;;;;;;5013371;28;20441;-67
2021/04/20 00:47:46;;;;;;;47.13;30.33;;;3.30;99.90;;;;;;5012156;28;20529;-68
2021/04/20 00:50:14;;;;;;;44.53;29.93;;;3.20;99.90;;;;;;5011565;28;20449;-67
2021/04/20 00:52:42;;;;;;;43.67;28.37;;;3.30;99.90;;;;;;5011057;28;20553;-67
2021/04/20 00:55:10;;;;;;;51.90;29.40;;;3.20;99.90;;;;;;5011519;28;20473;-68
2021/04/20 00:57:37;;;;;;;41.57;29.33;;;3.10;99.90;;;;;;5011055;28;20442;-68
2021/04/20 01:00:06;;;;;;;45.40;30.60;;;3.10;99.90;;;;;;5011361;28;20446;-67
2021/04/20 01:02:32;;;;;;;44.00;29.47;;;3.00;99.90;;;;;;5010777;28;20858;-68
2021/04/20 01:04:59;;;;;;;54.13;31.57;;;3.00;99.90;;;;;;5011109;28;21019;-67
2021/04/20 01:07:25;;;;;;;92.73;35.37;;;2.90;99.90;;;;;;5011017;28;20485;-67
2021/04/20 01:09:53;;;;;;;337.80;57.30;;;2.80;99.90;;;;;;5011044;28;20446;-68
2021/04/20 01:12:19;;;;;;;147.50;40.43;;;2.80;99.90;;;;;;5011169;28;20565;-67
2021/04/20 01:14:46;;;;;;;77.47;35.80;;;2.70;99.90;;;;;;5010914;28;20484;-67
2021/04/20 01:17:12;;;;;;;117.57;41.97;;;2.70;99.90;;;;;;5010838;28;21039;-67
2021/04/20 01:19:41;;;;;;;59.47;32.93;;;2.70;99.90;;;;;;5010945;28;20937;-68
2021/04/20 01:22:08;;;;;;;54.57;34.47;;;2.70;99.90;;;;;;5010838;28;20828;-68
2021/04/20 01:24:36;;;;;;;57.80;33.33;;;2.60;99.90;;;;;;5010603;28;20493;-68
2021/04/20 01:27:02;;;;;;;48.23;32.40;;;2.60;99.90;;;;;;5011085;28;20453;-67
2021/04/20 01:29:29;;;;;;;50.70;32.30;;;2.70;99.90;;;;;;5010711;28;20448;-68
2021/04/20 01:31:55;;;;;;;52.67;33.53;;;2.70;99.90;;;;;;5010658;28;20949;-68
2021/04/20 01:34:21;;;;;;;48.20;30.40;;;2.70;99.90;;;;;;5010369;28;20879;-67
2021/04/20 01:36:50;;;;;;;56.70;32.73;;;2.70;99.90;;;;;;5010607;28;20456;-68
2021/04/20 01:39:16;;;;;;;52.47;31.63;;;2.60;99.90;;;;;;5010852;28;20837;-68
2021/04/20 01:41:44;;;;;;;46.57;29.33;;;2.60;99.90;;;;;;5010789;28;20449;-68
2021/04/20 01:44:10;;;;;;;62.73;34.27;;;2.60;99.90;;;;;;5010262;28;20485;-68
2021/04/20 01:46:37;;;;;;;55.93;32.37;;;2.60;99.90;;;;;;5010334;28;20545;-68
2021/04/20 01:49:04;;;;;;;57.33;33.77;;;2.60;99.90;;;;;;5010303;28;20445;-67
2021/04/20 01:51:30;;;;;;;53.20;34.27;;;2.60;99.90;;;;;;5010581;28;20446;-67
2021/04/20 01:53:57;;;;;;;66.20;33.03;;;2.70;99.90;;;;;;5010230;28;20473;-67
2021/04/20 01:56:25;;;;;;;49.97;30.63;;;2.70;99.90;;;;;;5010502;28;20537;-67
2021/04/20 01:58:53;;;;;;;50.90;31.90;;;2.70;99.90;;;;;;5010826;28;20449;-68
2021/04/20 02:01:21;;;;;;;51.67;30.40;;;2.60;99.90;;;;;;5010285;28;20464;-68
2021/04/20 02:03:50;;;;;;;43.53;29.27;;;2.60;99.90;;;;;;5009995;28;20486;-67
2021/04/20 02:06:18;;;;;;;52.20;31.73;;;2.60;99.90;;;;;;5010623;28;20484;-67
2021/04/20 02:08:45;;;;;;;124.37;34.73;;;2.40;99.90;;;;;;5010459;28;20529;-67
2021/04/20 02:11:13;;;;;;;65.43;33.07;;;2.50;99.90;;;;;;5014016;28;20878;-67
2021/04/20 02:13:40;;;;;;;57.50;30.83;;;2.60;99.90;;;;;;5014053;28;20480;-68
2021/04/20 02:16:09;;;;;;;88.43;32.03;;;2.70;99.90;;;;;;5014675;28;20532;-68
2021/04/20 02:18:39;;;;;;;65.80;31.20;;;2.70;99.90;;;;;;5014395;28;20448;-68
2021/04/20 02:21:06;;;;;;;121.97;34.10;;;2.70;99.90;;;;;;5014380;28;20549;-68
2021/04/20 02:23:33;;;;;;;172.13;37.90;;;2.60;99.90;;;;;;5013035;28;20485;-68
2021/04/20 02:26:04;;;;;;;142.33;34.70;;;2.60;99.90;;;;;;5014106;28;20454;-68
2021/04/20 02:28:32;;;;;;;216.10;39.10;;;2.60;99.90;;;;;;5013973;28;21039;-68
2021/04/20 02:31:00;;;;;;;306.93;49.17;;;2.50;99.90;;;;;;5014292;28;21076;-68
2021/04/20 02:33:27;;;;;;;101.83;36.70;;;2.40;99.90;;;;;;5013859;28;20540;-68
2021/04/20 02:35:56;;;;;;;184.03;40.30;;;2.50;99.90;;;;;;5013938;28;20446;-69
2021/04/20 02:38:23;;;;;;;184.50;43.57;;;2.50;99.90;;;;;;5013961;28;20480;-68
2021/04/20 02:40:53;;;;;;;170.33;42.80;;;2.50;99.90;;;;;;5013887;28;20473;-68
2021/04/20 02:43:20;;;;;;;164.43;42.10;;;2.50;99.90;;;;;;5013507;28;20493;-69
2021/04/20 02:45:48;;;;;;;99.47;37.60;;;2.60;99.90;;;;;;5013800;28;21022;-68
2021/04/20 02:48:15;;;;;;;134.77;39.30;;;2.80;99.90;;;;;;5013953;28;20541;-68
2021/04/20 02:50:44;;;;;;;118.90;38.23;;;2.80;99.90;;;;;;5014050;28;20534;-69
2021/04/20 02:53:11;;;;;;;80.43;35.33;;;2.70;99.90;;;;;;5013509;28;20471;-69
2021/04/20 02:55:38;;;;;;;116.60;39.23;;;2.70;99.90;;;;;;5013683;28;20477;-69
2021/04/20 02:58:06;;;;;;;124.70;38.17;;;2.70;99.90;;;;;;5013831;28;20456;-69
2021/04/20 03:00:33;;;;;;;59.30;33.50;;;2.70;99.90;;;;;;5013649;28;20531;-68
2021/04/20 03:03:01;;;;;;;92.97;35.17;;;2.70;99.90;;;;;;5013266;28;20572;-68
2021/04/20 03:05:29;;;;;;;96.67;37.10;;;2.70;99.90;;;;;;5013627;28;20448;-68
2021/04/20 03:07:57;;;;;;;116.40;36.77;;;2.70;99.90;;;;;;5013612;28;20477;-68
2021/04/20 03:10:24;;;;;;;126.13;38.33;;;2.70;99.90;;;;;;5013244;28;20449;-69
2021/04/20 03:12:51;;;;;;;183.97;41.83;;;2.70;99.90;;;;;;5013267;28;20457;-68
2021/04/20 03:15:18;;;;;;;133.53;42.23;;;2.70;99.90;;;;;;5013366;28;20449;-69
2021/04/20 03:17:46;;;;;;;102.60;38.13;;;2.60;99.90;;;;;;5013337;28;20829;-68
2021/04/20 03:20:13;;;;;;;152.40;40.60;;;2.80;99.90;;;;;;5013103;28;20491;-68
2021/04/20 03:22:41;;;;;;;104.00;32.80;;;2.90;99.90;;;;;;5012679;28;20492;-69
2021/04/20 03:25:24;;;;;;;81.10;32.73;;;2.90;99.90;;;;;;5013089;28;20977;-68
2021/04/20 03:27:54;;;;;;;81.30;33.37;;;2.80;99.90;;;;;;5012287;28;20457;-68
2021/04/20 03:30:24;;;;;;;86.60;34.67;;;2.80;99.90;;;;;;5013184;28;20481;-69
2021/04/20 03:33:12;;;;;;;132.67;36.73;;;2.80;99.90;;;;;;5012695;28;20541;-68
2021/04/20 03:35:45;;;;;;;69.03;32.70;;;2.80;99.90;;;;;;5012913;28;20442;-69
2021/04/20 03:38:20;;;;;;;81.53;35.50;;;2.80;99.90;;;;;;5013125;28;20470;-68
2021/04/20 03:40:52;;;;;;;111.63;33.30;;;2.90;99.90;;;;;;5012885;28;20982;-68
2021/04/20 03:43:25;;;;;;;148.03;39.60;;;2.80;99.90;;;;;;5012515;28;20577;-68
2021/04/20 03:45:56;;;;;;;153.00;41.07;;;2.70;99.90;;;;;;5012834;28;20474;-68
2021/04/20 03:48:29;;;;;;;46.90;29.50;;;2.60;99.90;;;;;;5012851;28;20471;-68
2021/04/20 03:50:59;;;;;;;92.67;35.60;;;2.50;99.90;;;;;;5012819;28;20808;-68
2021/04/20 03:53:26;;;;;;;108.50;34.07;;;2.60;99.90;;;;;;5012403;28;20541;-68
2021/04/20 03:55:55;;;;;;;199.07;39.60;;;2.70;99.90;;;;;;5012626;28;20532;-68
2021/04/20 03:58:24;;;;;;;135.10;35.87;;;2.60;99.90;;;;;;5012526;28;20448;-68
2021/04/20 04:00:52;;;;;;;108.53;34.30;;;2.60;99.90;;;;;;5012312;28;20529;-68
2021/04/20 04:03:22;;;;;;;63.63;33.77;;;2.60;99.90;;;;;;5012311;28;20485;-68
2021/04/20 04:05:50;;;;;;;54.67;29.10;;;2.60;99.90;;;;;;5012313;28;20450;-68
2021/04/20 04:08:17;;;;;;;177.13;33.97;;;2.60;99.90;;;;;;5012518;28;20448;-68
2021/04/20 04:10:47;;;;;;;88.70;32.33;;;2.40;99.90;;;;;;5012086;28;20453;-68
2021/04/20 04:13:17;;;;;;;68.93;29.90;;;2.40;99.90;;;;;;5011748;28;20458;-68
2021/04/20 04:15:44;;;;;;;59.83;29.30;;;2.40;99.90;;;;;;5012179;28;20524;-68
2021/04/20 04:18:13;;;;;;;52.07;28.33;;;2.40;99.90;;;;;;5012214;28;20458;-68
2021/04/20 04:20:40;;;;;;;77.93;31.73;;;2.40;99.90;;;;;;5012002;28;20549;-68
2021/04/20 04:23:12;;;;;;;90.30;30.27;;;2.40;99.90;;;;;;5011536;28;20969;-68
2021/04/20 04:25:47;;;;;;;86.30;30.93;;;2.30;99.90;;;;;;5012246;28;20469;-68
2021/04/20 04:28:15;;;;;;;52.23;29.23;;;2.20;99.90;;;;;;5012187;28;20981;-68
2021/04/20 04:30:44;;;;;;;51.43;28.97;;;2.20;99.90;;;;;;5012175;28;20446;-68
2021/04/20 04:33:12;;;;;;;45.40;28.83;;;2.20;99.90;;;;;;5010764;28;20465;-68
2021/04/20 04:35:43;;;;;;;278.00;49.17;;;2.20;99.90;;;;;;5011642;28;20441;-69
2021/04/20 04:38:09;;;;;;;124.37;41.07;;;2.20;99.90;;;;;;5011937;28;20441;-68
2021/04/20 04:40:36;;;;;;;79.47;37.20;;;2.20;99.90;;;;;;5011783;28;20891;-68
2021/04/20 04:43:03;;;;;;;351.60;53.63;;;2.40;99.90;;;;;;5011199;28;20481;-68
2021/04/20 04:45:31;;;;;;;319.00;51.37;;;2.40;99.90;;;;;;5011443;28;21027;-68
2021/04/20 04:47:58;;;;;;;501.80;69.43;;;2.50;99.90;;;;;;5011339;28;21082;-68
2021/04/20 04:50:25;;;;;;;423.70;62.57;;;2.50;99.90;;;;;;5011454;28;20450;-68
2021/04/20 04:52:52;;;;;;;318.07;55.13;;;2.40;99.90;;;;;;5011372;28;20458;-68
2021/04/20 04:55:19;;;;;;;235.87;49.53;;;2.50;99.90;;;;;;5011462;28;20452;-69
2021/04/20 04:57:47;;;;;;;225.23;50.00;;;2.60;99.90;;;;;;5011484;28;20446;-68
2021/04/20 05:00:16;;;;;;;112.67;42.67;;;2.70;99.90;;;;;;5011186;28;20549;-68
2021/04/20 05:02:44;;;;;;;140.63;44.43;;;2.80;99.90;;;;;;5010847;28;20569;-68
2021/04/20 05:05:14;;;;;;;186.47;46.10;;;2.80;99.90;;;;;;5011424;28;20445;-68
2021/04/20 05:07:42;;;;;;;126.77;42.33;;;2.70;99.90;;;;;;5011239;28;21036;-68
2021/04/20 05:10:11;;;;;;;147.73;47.17;;;2.70;99.90;;;;;;5011444;28;20826;-68
2021/04/20 05:12:38;;;;;;;117.93;42.70;;;2.80;99.90;;;;;;4999711;28;20493;-72
2021/04/20 05:15:06;;;;;;;163.97;46.87;;;2.90;99.90;;;;;;5009767;28;20991;-72
2021/04/20 05:17:32;;;;;;;72.37;40.70;;;3.00;99.90;;;;;;5021276;28;20451;-70
2021/04/20 05:20:00;;;;;;;144.53;46.20;;;3.10;99.90;;;;;;5028887;28;20440;-70
2021/04/20 05:22:27;;;;;;;138.20;45.77;;;3.30;99.90;;;;;;5030015;28;20564;-69
2021/04/20 05:24:53;;;;;;;126.17;43.90;;;3.40;99.90;;;;;;5030550;28;20527;-68
2021/04/20 05:27:19;;;;;;;94.33;43.90;;;3.40;99.90;;;;;;5030519;28;20536;-71
2021/04/20 05:29:46;;;;;;;102.57;43.63;;;3.50;99.90;;;;;;5030368;28;20893;-69
2021/04/20 05:32:12;;;;;;;157.90;44.60;;;3.60;99.90;;;;;;5030588;28;20560;-69
2021/04/20 05:34:39;;;;;;;112.47;43.60;;;3.70;99.90;;;;;;5030202;28;20536;-70
2021/04/20 05:37:06;;;;;;;117.43;42.80;;;3.50;99.90;;;;;;5018943;28;20449;-70
2021/04/20 05:39:34;;;;;;;94.97;38.57;;;3.70;99.90;;;;;;5013143;28;20537;-70
2021/04/20 05:42:00;;;;;;;125.50;43.90;;;3.80;99.90;;;;;;5016675;28;20957;-70
2021/04/20 05:44:31;;;;;;;144.87;41.83;;;3.90;99.90;;;;;;5008212;28;21099;-70
2021/04/20 05:46:58;;;;;;;69.77;34.80;;;3.80;99.90;;;;;;5008754;28;20533;-70
2021/04/20 05:49:25;;;;;;;68.07;36.07;;;3.90;99.90;;;;;;5009004;28;20454;-69
2021/04/20 05:51:51;;;;;;;86.00;35.73;;;3.90;99.90;;;;;;5008548;28;20951;-70
2021/04/20 05:54:19;;;;;;;150.60;37.60;;;3.90;99.90;;;;;;5008270;28;20818;-70
2021/04/20 05:56:45;;;;;;;124.80;38.60;;;3.80;99.90;;;;;;4998007;28;20497;-69
2021/04/20 05:59:15;;;;;;;126.10;33.40;;;3.60;99.90;;;;;;4990022;28;20455;-69
2021/04/20 06:01:42;;;;;;;178.00;36.60;;;3.60;99.90;;;;;;4999350;28;20536;-67
2021/04/20 06:04:10;;;;;;;159.43;39.00;;;3.50;99.90;;;;;;5007918;28;20494;-68
2021/04/20 06:06:45;;;;;;;176.13;38.97;;;3.50;99.90;;;;;;5001876;28;20439;-68
2021/04/20 06:09:12;;;;;;;146.17;38.57;;;3.40;99.90;;;;;;4995977;28;20538;-67
2021/04/20 06:11:40;;;;;;;115.50;36.07;;;3.40;99.90;;;;;;4999924;28;20530;-67
2021/04/20 06:14:07;;;;;;;72.83;31.20;;;3.50;99.90;;;;;;4997031;28;21001;-67
2021/04/20 06:16:35;;;;;;;106.93;35.80;;;3.70;99.90;;;;;;4996482;28;20980;-70
2021/04/20 06:19:02;;;;;;;70.90;33.70;;;3.90;99.90;;;;;;5002523;28;20528;-69
2021/04/20 06:21:29;;;;;;;239.77;43.67;;;4.10;99.90;;;;;;5006927;28;20525;-69
2021/04/20 06:23:57;;;;;;;105.17;35.03;;;4.30;99.90;;;;;;5005744;28;20588;-67
2021/04/20 06:26:24;;;;;;;110.00;34.90;;;4.50;99.90;;;;;;5007272;28;21115;-68
2021/04/20 06:28:52;;;;;;;73.23;33.27;;;4.60;99.90;;;;;;5007447;28;20448;-68
2021/04/20 06:31:19;;;;;;;98.00;34.63;;;4.80;99.90;;;;;;5006947;28;20461;-69
2021/04/20 06:33:46;;;;;;;96.37;34.83;;;5.10;99.90;;;;;;5006210;28;20600;-69
2021/04/20 06:36:12;;;;;;;109.70;32.33;;;5.40;99.90;;;;;;5007156;28;20540;-67
2021/04/20 06:38:40;;;;;;;125.10;31.93;;;5.50;99.90;;;;;;5004722;28;20454;-68
2021/04/20 06:41:08;;;;;;;92.77;28.40;;;5.50;99.90;;;;;;5006061;28;20963;-66
2021/04/20 06:43:42;;;;;;;45.20;27.00;;;5.70;99.90;;;;;;5005693;28;20585;-68
2021/04/20 06:46:14;;;;;;;39.43;26.00;;;5.80;99.90;;;;;;5006834;28;20452;-67
2021/04/20 06:48:43;;;;;;;35.93;25.87;;;5.70;99.90;;;;;;4998440;28;20571;-65
2021/04/20 06:51:15;;;;;;;35.67;26.47;;;5.60;99.90;;;;;;4985211;28;20462;-66
2021/04/20 06:53:46;;;;;;;47.43;25.93;;;5.50;99.90;;;;;;4985559;28;20470;-67
2021/04/20 06:56:24;;;;;;;53.40;28.23;;;5.70;99.90;;;;;;4988361;28;20450;-67
2021/04/20 06:59:01;;;;;;;49.87;27.50;;;5.60;99.90;;;;;;5004826;28;20866;-66
2021/04/20 07:01:37;;;;;;;66.40;26.53;;;5.50;99.90;;;;;;5008856;28;20537;-66
2021/04/20 07:04:13;;;;;;;51.07;26.50;;;5.50;99.90;;;;;;5008796;28;20485;-66
2021/04/20 07:06:52;;;;;;;44.87;28.03;;;5.60;99.90;;;;;;5009291;28;20532;-66
2021/04/20 07:09:22;;;;;;;43.73;26.60;;;5.90;99.90;;;;;;5009243;28;20451;-65
2021/04/20 07:11:50;;;;;;;50.77;28.77;;;6.30;99.90;;;;;;5008963;28;20446;-67
2021/04/20 07:14:27;;;;;;;35.10;27.47;;;6.70;99.90;;;;;;5008183;28;20547;-66
2021/04/20 07:17:04;;;;;;;40.63;27.07;;;7.00;99.90;;;;;;5009200;28;20453;-67
2021/04/20 07:19:46;;;;;;;28.73;22.73;;;7.30;99.90;;;;;;5008510;28;20528;-66
2021/04/20 07:22:49;;;;;;;29.83;23.13;;;7.70;99.90;;;;;;5008359;28;20592;-66
2021/04/20 07:25:32;;;;;;;28.57;23.67;;;8.00;99.90;;;;;;5005514;28;20532;-66
2021/04/20 07:28:10;;;;;;;25.03;22.27;;;8.10;99.90;;;;;;5008437;28;21092;-66
2021/04/20 07:30:44;;;;;;;22.73;20.33;;;7.90;99.90;;;;;;5007888;28;20480;-66
2021/04/20 07:33:27;;;;;;;25.43;20.93;;;7.90;99.90;;;;;;4988201;28;20470;-67
2021/04/20 07:35:58;;;;;;;26.10;22.80;;;8.00;99.90;;;;;;4989392;28;20933;-67
2021/04/20 07:38:33;;;;;;;34.83;22.80;;;7.80;99.90;;;;;;4989121;28;20474;-67
2021/04/20 07:41:09;;;;;;;32.37;22.83;;;7.60;99.90;;;;;;4988374;28;20532;-68
2021/04/20 07:43:50;;;;;;;31.00;23.03;;;7.80;99.90;;;;;;4988262;28;20964;-68
2021/04/20 07:46:21;;;;;;;26.60;23.07;;;8.10;99.90;;;;;;4989382;28;20526;-67
2021/04/20 07:48:55;;;;;;;29.63;24.27;;;8.30;99.90;;;;;;4989212;28;20541;-67
2021/04/20 07:51:28;;;;;;;27.13;24.20;;;8.40;99.90;;;;;;4988450;28;20486;-67
2021/04/20 07:54:06;;;;;;;25.03;21.47;;;8.80;99.90;;;;;;4987793;28;20977;-68
2021/04/20 07:56:43;;;;;;;27.80;24.43;;;9.10;99.90;;;;;;4998526;28;20969;-67
2021/04/20 07:59:13;;;;;;;26.80;21.60;;;9.20;99.90;;;;;;5027858;28;20445;-67
2021/04/20 08:01:46;;;;;;;27.73;23.50;;;9.30;99.90;;;;;;5027637;28;20568;-66
2021/04/20 08:04:28;;;;;;;28.10;25.17;;;9.20;99.90;;;;;;5027380;28;20496;-67
2021/04/20 08:07:02;;;;;;;28.80;25.67;;;9.20;99.90;;;;;;5027035;28;20548;-66
2021/04/20 08:09:33;;;;;;;29.10;25.90;;;9.00;99.90;;;;;;5027608;28;20811;-66
2021/04/20 08:12:04;;;;;;;34.10;29.27;;;9.00;99.90;;;;;;5027555;28;20449;-66
2021/04/20 08:14:39;;;;;;;33.00;26.80;;;9.10;99.90;;;;;;5027521;28;20441;-68
2021/04/20 08:17:12;;;;;;;34.37;26.30;;;9.30;99.90;;;;;;5028244;28;20579;-68
2021/04/20 08:19:44;;;;;;;31.80;26.47;;;9.30;99.90;;;;;;5027209;28;20445;-66
2021/04/20 08:22:14;;;;;;;33.43;26.10;;;9.10;99.90;;;;;;5027383;28;21048;-68
2021/04/20 08:24:48;;;;;;;34.33;28.07;;;9.10;99.90;;;;;;5029789;28;21127;-67
2021/04/20 08:27:18;;;;;;;34.67;28.00;;;9.30;99.90;;;;;;5028420;28;20492;-68
2021/04/20 08:29:47;;;;;;;35.73;30.33;;;9.40;99.90;;;;;;5027580;28;20530;-67
2021/04/20 08:32:18;;;;;;;33.47;28.33;;;9.50;99.90;;;;;;5027819;28;20464;-66
2021/04/20 08:34:52;;;;;;;36.53;28.80;;;9.70;99.90;;;;;;5027481;28;20539;-66
2021/04/20 08:37:30;;;;;;;39.90;31.37;;;10.00;99.90;;;;;;5023528;28;20889;-66
2021/04/20 08:40:08;;;;;;;35.37;27.90;;;10.30;99.90;;;;;;5016037;28;20536;-67
2021/04/20 08:42:42;;;;;;;35.20;30.17;;;10.50;99.90;;;;;;5018738;28;20465;-67
2021/04/20 08:45:18;;;;;;;35.87;30.00;;;10.70;99.90;;;;;;5023545;28;20536;-67
2021/04/20 08:47:52;;;;;;;36.80;29.90;;;10.70;99.90;;;;;;5002765;28;20914;-67
2021/04/20 08:50:24;;;;;;;37.50;32.13;;;10.80;99.90;;;;;;5012139;28;20516;-65
2021/04/20 08:52:58;;;;;;;35.17;29.13;;;10.90;99.90;;;;;;5005423;28;20474;-68
2021/04/20 08:55:39;;;;;;;35.57;31.63;;;11.10;99.90;;;;;;5005373;28;20987;-67
2021/04/20 08:58:25;;;;;;;34.77;28.37;;;11.30;99.90;;;;;;5009811;28;20511;-68
2021/04/20 09:01:07;;;;;;;35.10;29.70;;;11.50;99.90;;;;;;5013487;28;20482;-68
2021/04/20 09:03:43;;;;;;;34.07;29.10;;;11.70;99.90;;;;;;5009033;28;20517;-67
2021/04/20 09:06:19;;;;;;;36.73;29.67;;;12.10;99.90;;;;;;5008442;28;20533;-68
2021/04/20 09:08:48;;;;;;;32.17;25.80;;;12.20;99.90;;;;;;5007061;28;20461;-68
2021/04/20 09:11:20;;;;;;;29.57;26.33;;;12.30;99.90;;;;;;5004660;28;21208;-67
2021/04/20 09:13:58;;;;;;;30.57;25.90;;;12.50;99.90;;;;;;4999302;28;20501;-67
2021/04/20 09:16:29;;;;;;;31.63;25.03;;;12.70;99.90;;;;;;5001365;28;20458;-67
2021/04/20 09:19:00;;;;;;;34.77;25.53;;;12.80;99.90;;;;;;5002550;28;20603;-66
2021/04/20 09:21:33;;;;;;;37.43;25.40;;;12.80;99.90;;;;;;5000316;28;20451;-65
2021/04/20 09:24:07;;;;;;;31.07;25.83;;;12.80;99.90;;;;;;5007072;28;20536;-68
2021/04/20 09:26:39;;;;;;;26.97;22.00;;;12.90;99.90;;;;;;5025734;28;20536;-66
2021/04/20 09:29:13;;;;;;;20.93;18.40;;;13.30;99.90;;;;;;5025872;28;20483;-64
2021/04/20 09:31:46;;;;;;;28.90;23.67;;;13.50;99.90;;;;;;5026071;28;20450;-68
2021/04/20 09:34:17;;;;;;;26.60;22.37;;;13.90;99.90;;;;;;5025084;28;20552;-67
2021/04/20 09:36:44;;;;;;;27.50;23.07;;;14.10;99.90;;;;;;5016162;28;21127;-67
2021/04/20 09:39:14;;;;;;;23.83;21.40;;;14.40;99.90;;;;;;5005505;28;20496;-67
2021/04/20 09:41:42;;;;;;;24.73;22.30;;;14.90;99.90;;;;;;5007000;28;20496;-68
2021/04/20 09:44:24;;;;;;;26.20;23.53;;;15.50;99.90;;;;;;5005004;28;20481;-67
2021/04/20 09:47:08;;;;;;;23.80;21.40;;;16.30;99.90;;;;;;5009623;28;20549;-66
2021/04/20 09:49:49;;;;;;;22.67;20.57;;;17.00;99.90;;;;;;5009927;28;20516;-67
2021/04/20 09:52:20;;;;;;;24.80;22.30;;;17.30;99.90;;;;;;5010109;28;20527;-67
2021/04/20 09:54:52;;;;;;;26.73;24.03;;;17.90;99.90;;;;;;5010720;28;20532;-67
2021/04/20 09:57:23;;;;;;;26.17;23.53;;;17.60;99.90;;;;;;5008304;28;20469;-65
2021/04/20 09:59:54;;;;;;;25.27;22.73;;;17.20;99.90;;;;;;5002005;28;20821;-67
2021/04/20 10:02:42;;;;;;;26.53;23.83;;;17.30;99.90;;;;;;5009019;28;20510;-67
2021/04/20 10:05:17;;;;;;;26.83;24.37;;;17.20;99.90;;;;;;5012063;28;20441;-68
2021/04/20 10:08:08;;;;;;;24.93;22.43;;;17.40;99.90;;;;;;5016329;28;20447;-68
2021/04/20 10:10:47;;;;;;;24.07;21.77;;;17.60;99.50;;;;;;5009071;28;21075;-68
2021/04/20 10:13:34;;;;;;;22.70;20.30;;;17.50;98.60;;;;;;5014071;28;20460;-67
2021/04/20 10:16:06;;;;;;;22.60;20.30;;;17.40;98.10;;;;;;5017740;28;20448;-68
2021/04/20 10:18:41;;;;;;;21.63;19.53;;;17.30;98.00;;;;;;5009985;28;21000;-68
2021/04/20 10:21:16;;;;;;;19.87;17.80;;;17.40;98.60;;;;;;5010503;28;20445;-69
2021/04/20 10:23:51;;;;;;;19.17;17.23;;;17.30;97.50;;;;;;5008029;28;21322;-70
2021/04/20 10:26:28;;;;;;;20.97;18.87;;;17.50;97.00;;;;;;5006490;28;20455;-68
2021/04/20 10:28:59;;;;;;;20.43;18.37;;;17.80;98.90;;;;;;5006474;28;21093;-69
2021/04/20 10:31:32;;;;;;;20.57;18.63;;;18.00;98.00;;;;;;5021986;28;20528;-68
2021/04/20 10:33:59;;;;;;;21.30;19.30;;;18.50;98.60;;;;;;5012207;28;20512;-69
2021/04/20 10:36:27;;;;;;;22.23;18.27;;;19.10;94.40;;;;;;5011141;28;20450;-66
2021/04/20 10:38:57;;;;;;;20.87;18.80;;;19.00;94.90;;;;;;5004460;28;20442;-66
2021/04/20 10:41:27;;;;;;;16.97;15.27;;;19.00;96.50;;;;;;5004643;28;20851;-66
2021/04/20 10:43:56;;;;;;;33.33;18.80;;;19.30;94.10;;;;;;5002504;28;20547;-67
2021/04/20 10:46:25;;;;;;;31.93;16.00;;;19.30;93.20;;;;;;5020991;28;20452;-69
2021/04/20 10:48:54;;;;;;;21.43;16.33;;;19.20;91.30;;;;;;5027584;28;20524;-68
2021/04/20 10:51:30;;;;;;;17.80;16.10;;;19.20;93.00;;;;;;5033200;28;20491;-68
2021/04/20 10:53:58;;;;;;;17.10;15.40;;;19.30;92.30;;;;;;5020616;28;20458;-70
2021/04/20 10:56:28;;;;;;;16.80;15.20;;;19.60;91.60;;;;;;5012958;28;20561;-70
2021/04/20 10:58:57;;;;;;;15.80;13.90;;;19.80;93.00;;;;;;5003186;28;20497;-66
2021/04/20 11:01:28;;;;;;;19.77;17.80;;;20.30;89.50;;;;;;5010432;28;20537;-67
2021/04/20 11:03:56;;;;;;;17.10;15.50;;;20.10;85.80;;;;;;5011994;28;20485;-68
2021/04/20 11:06:41;;;;;;;16.33;14.73;;;20.10;88.10;;;;;;5013145;28;20450;-67
2021/04/20 11:09:08;;;;;;;18.73;15.50;;;19.60;89.00;;;;;;5007803;28;20482;-67
2021/04/20 11:11:35;;;;;;;22.50;15.37;;;20.00;88.10;;;;;;5020006;28;20441;-68
2021/04/20 11:14:01;;;;;;;15.90;14.30;;;19.50;84.20;;;;;;5011279;28;21034;-67
2021/04/20 11:16:36;;;;;;;16.70;14.90;;;18.20;89.20;;;;;;5017041;28;20543;-65
2021/04/20 11:19:06;;;;;;;16.23;14.63;;;17.70;91.60;;;;;;5014472;28;20507;-69
2021/04/20 11:21:36;;;;;;;15.53;13.93;;;17.70;91.80;;;;;;5008280;28;20456;-66
2021/04/20 11:24:09;;;;;;;19.97;15.40;;;18.20;93.70;;;;;;5013239;28;20484;-67
2021/04/20 11:26:40;;;;;;;16.20;14.50;;;18.80;93.20;;;;;;5021226;28;20499;-68
2021/04/20 11:29:10;;;;;;;17.03;14.87;;;19.30;92.00;;;;;;5014088;28;20489;-70
2021/04/20 11:31:44;;;;;;;21.43;16.47;;;20.70;91.00;;;;;;5011248;28;20473;-68
2021/04/20 11:34:16;;;;;;;21.30;17.17;;;21.90;85.60;;;;;;5012751;28;20524;-68
2021/04/20 11:36:46;;;;;;;16.90;15.23;;;21.50;83.40;;;;;;5010809;28;20458;-68
2021/04/20 11:39:18;;;;;;;15.77;14.27;;;21.20;83.30;;;;;;5021120;28;20473;-68
2021/04/20 11:41:58;;;;;;;17.27;15.57;;;21.10;82.20;;;;;;5021720;28;20460;-65
2021/04/20 11:44:25;;;;;;;16.43;14.83;;;20.20;83.00;;;;;;5022521;28;21038;-68
2021/04/20 11:46:53;;;;;;;16.10;14.60;;;20.20;84.30;;;;;;5027631;28;20473;-68
2021/04/20 11:49:23;;;;;;;16.70;15.20;;;20.60;82.90;;;;;;5015430;28;20520;-66
2021/04/20 11:51:51;;;;;;;14.90;13.30;;;20.70;83.30;;;;;;5011697;28;20450;-67
2021/04/20 11:57:16;;;;;;;13.07;11.83;;;21.90;81.80;;;;;;5009524;28;20470;-67
2021/04/20 12:02:33;;;;;;;13.07;11.90;;;23.10;76.90;;;;;;5002503;28;20572;-66
2021/04/20 12:05:02;;;;;;;16.77;12.80;;;23.40;77.10;;;;;;5020675;28;20450;-67
2021/04/20 12:11:05;;;;;;;13.37;12.10;;;23.60;73.40;;;;;;5017661;28;20455;-65
2021/04/20 12:13:38;;;;;;;16.20;12.27;;;22.40;71.90;;;;;;5019714;28;20466;-68
2021/04/20 12:16:07;;;;;;;14.93;12.80;;;21.30;76.70;;;;;;5015035;28;20476;-65
2021/04/20 12:18:36;;;;;;;14.30;12.73;;;21.10;78.00;;;;;;5015220;28;20439;-66
2021/04/20 12:21:06;;;;;;;17.00;13.30;;;21.30;70.50;;;;;;5020740;28;20447;-66
2021/04/20 12:23:36;;;;;;;13.57;11.13;;;21.70;73.20;;;;;;5025979;28;20525;-66
2021/04/20 12:26:03;;;;;;;11.77;10.63;;;22.10;73.20;;;;;;5020845;28;20452;-64
2021/04/20 12:28:31;;;;;;;10.80;9.70;;;23.00;71.90;;;;;;5020139;28;20456;-65
2021/04/20 12:30:59;;;;;;;11.87;10.67;;;24.00;71.00;;;;;;5019820;28;20449;-65
2021/04/20 12:33:28;;;;;;;10.83;9.73;;;25.20;68.20;;;;;;5024708;28;20517;-66
2021/04/20 12:35:55;;;;;;;10.03;9.03;;;26.00;62.00;;;;;;5026831;28;20926;-67
2021/04/20 12:38:24;;;;;;;10.20;9.30;;;26.30;58.00;;;;;;5032261;28;20733;-67
2021/04/20 12:40:55;;;;;;;9.33;8.43;;;26.10;58.10;;;;;;5037786;28;20882;-69
2021/04/20 12:43:24;;;;;;;9.80;8.90;;;27.20;56.90;;;;;;5025726;28;20514;-67
2021/04/20 12:45:51;;;;;;;9.13;8.33;;;26.10;55.20;;;;;;5024214;28;20912;-67
2021/04/20 12:48:26;;;;;;;9.27;8.47;;;24.70;55.20;;;;;;5025133;28;20445;-67
2021/04/20 12:50:54;;;;;;;9.00;8.10;;;24.80;58.90;;;;;;5024857;28;20442;-67
2021/04/20 12:53:23;;;;;;;10.70;9.30;;;25.90;57.10;;;;;;5025141;28;20487;-66
2021/04/20 12:55:52;;;;;;;9.17;8.27;;;25.40;54.70;;;;;;5026918;28;20457;-67